Phoenix, Arizona
Traffic Map
Current Weather Conditions
Phoenix, Arizona
Clear
Clear
87°
Feels Like: 87°
Wind Chill: 87° Ceiling: Unl
Heat Index: 87° Visibility: 10mi
Dew Point: 41° Wind: 0mph
Humidity: 20% Direction: ° ()
Pressure: 29.87in Gusts: 0mph
Raw Report DataKPHX 201551Z 00000KT 10SM CLR 31/05 A2987 RMK AO2 SLP093 T03060050
Traffic Incident Summary
Active as of:
Severity:
Category:
InformationThere was an issue retrieving the traffic information for this location. Please try a different location or try again shortly.
Advertisements